KMSS

Massena International-Richards Field Airport

Massena, New York, USA
METAR KMSS 171629Z AUTO 18006KT 10SM OVC028 24/21 A2993 RMK AO2 RAE1554 P0000 T02390211
Observed Flight Rules
Aug-17 @ 16:29 UTC (22 minutes ago) Marginal Visual Flight Rules
Wind Visibility Clouds
180° at 6 knots 10 miles
  • Overcast at 2,800' AGL
Temperatures Readings Precipitation
Current 24°C / 75°F
Dewpoint 21°C / 70°F
Humidity 83%
Altimeter 29.93" Hg
Pressure 1014 hPa
Elevation 66
Current Rain 0.005
METAR KMSS 171629Z AUTO 18006KT 10SM OVC028 24/21 A2993 RMK AO2 RAE1554 P0000 T02390211
Observed Flight Rules
Aug-17 @ 16:29 UTC
(22 minutes ago)
MVFR
Wind Visibility
180° at 6 knots 10 miles
Clouds
  • Overcast at 2,800' AGL
Temperature Dewpoint
24°C / 75°F 21°C / 70°F
Humidity Altimeter Pressure
83% 29.93" Hg 1014 hPa
Current Rain
0.005